Latest Weather Observations for Gudgenby

IDN60901

Issued at 9:31 am EST Tuesday 16 July 2024 (issued every 10 minutes, with the page automatically refreshed every 10 minutes)

About weather observations | Map of Canberra area stations | Latest observations for Canberra area | Other Formats
Station Details ID: 250072 Name: AFSD - GUDGENBY Lat: -35.73 Lon: 148.98 Height: 1035.0 m

Portable automatic weather stations (PAWS) are operated by other organisations, such as Fire and Emergency Services, and are included here by agreement. Portable stations may be deployed to a location for a short period and their location may be subject to change without notice. Wind observations from these stations are provided from heights of either three (3) or ten (10) metres above ground level (AGL).

Data from the previous 72 hours. | See also: Recent months for locations in Aust Capital Territory
Date/Time
EST
Temp
°C
App
Temp
°C
Dew
Point
°C
Rel
Hum
%
Delta-T
°C
Wind Press
QNH
hPa
Press
MSL
hPa
Rain since
9am
mm
Dir  Spd
km/h
Gust
km/h
Spd
kts
Gust
kts
16/09:00am 4.9 -0.2 0.7 74 1.7 NNE 17 19 9 10 - - 0.0
16/08:30am 4.1 -0.3 0.1 75 1.6 NNE 13 15 7 8 999.6 - 0.0
16/08:00am 3.9 1.1 -0.6 72 1.8 NE 4 7 2 4 999.2 - 0.0
16/07:30am 3.9 0.4 -1.3 69 2.0 ESE 7 9 4 5 - - 0.0
16/07:00am 4.1 -1.7 -1.6 66 2.2 ESE 19 24 10 13 998.5 - 0.0
16/06:30am 4.1 -1.0 -2.2 63 2.4 E 15 17 8 9 998.1 - 0.0
16/06:00am 4.2 -2.3 -2.4 62 2.5 ESE 22 30 12 16 997.6 - 0.0
16/05:30am 4.2 -1.3 -2.2 63 2.4 ESE 17 26 9 14 997.2 - 0.0
16/05:00am 3.9 -0.8 -1.9 66 2.2 SE 13 17 7 9 996.6 - 0.0
16/04:30am 3.6 -0.2 -1.1 71 1.8 WNW 9 20 5 11 997.1 - 0.0
16/04:00am 3.7 -1.8 -1.8 67 2.1 ESE 17 24 9 13 997.2 - 0.0
16/03:30am 3.9 -2.0 -2.1 65 2.3 SE 19 28 10 15 997.1 - 0.0
16/03:00am 4.1 -2.7 -2.2 63 2.4 SE 24 37 13 20 997.0 - 0.0
16/02:30am 3.8 -0.9 -2.1 65 2.3 SW 13 20 7 11 997.0 - 0.0
16/02:00am 3.6 -0.8 -2.1 66 2.2 S 11 19 6 10 997.2 - 0.0
16/01:30am 3.7 -0.3 -1.9 67 2.1 E 9 17 5 9 997.3 - 0.0
16/01:00am 3.5 -0.5 -2.4 65 2.2 WSW 9 24 5 13 997.8 - 0.0
16/12:30am 3.5 -0.2 -2.5 65 2.3 S 7 13 4 7 998.6 - 0.0
16/12:00am 3.6 -2.5 -2.6 64 2.3 SE 20 33 11 18 998.9 - 0.0
 
Date/Time
EST
Temp
°C
App
Temp
°C
Dew
Point
°C
Rel
Hum
%
Delta-T
°C
Wind Press
QNH
hPa
Press
MSL
hPa
Rain since
9am
mm
Dir  Spd
km/h
Gust
km/h
Spd
kts
Gust
kts
15/11:30pm 3.6 -2.3 -2.5 64 2.3 SSE 19 28 10 15 999.3 - 0.0
15/11:00pm 3.7 -2.2 -2.6 63 2.4 S 19 22 10 12 999.6 - 0.0
15/10:30pm 3.8 -1.4 -2.8 62 2.5 S 15 35 8 19 999.6 - 0.0
15/10:00pm 3.7 -1.1 -2.6 63 2.4 SSW 13 22 7 12 1000.0 - 0.0
15/09:30pm 3.7 -1.5 -2.9 62 2.5 SSW 15 30 8 16 1000.5 - 0.0
15/09:00pm 3.3 -1.6 -3.1 63 2.4 WSW 13 20 7 11 1000.7 - 0.0
15/08:30pm 3.1 -2.2 -3.4 62 2.4 WNW 15 24 8 13 1001.3 - 0.0
15/08:00pm 2.9 -1.3 -3.6 62 2.4 W 9 17 5 9 1001.5 - 0.0
15/07:30pm 2.9 -0.9 -3.7 62 2.4 SW 7 17 4 9 1001.8 - 0.0
15/07:00pm 3.1 -1.0 -3.2 63 2.3 SSE 9 19 5 10 1001.7 - 0.0
15/06:30pm 3.0 -1.2 -3.5 62 2.4 NNE 9 24 5 13 1001.8 - 0.0
15/06:00pm 3.0 -1.2 -4.0 60 2.5 SW 9 17 5 9 1001.7 - 0.0
15/05:30pm 3.1 -1.5 -3.9 60 2.5 S 11 20 6 11 1002.0 - 0.0
15/05:00pm 3.3 -6.2 -3.6 60 2.5 SE 37 46 20 25 1001.9 - 0.0
15/04:30pm 3.6 -2.0 -3.1 61 2.5 SSE 17 24 9 13 1001.5 - 0.0
15/04:00pm 4.2 -0.6 -2.5 62 2.5 WSW 13 19 7 10 1001.9 - 0.0
15/03:30pm 4.5 -2.1 -3.2 57 2.9 SE 22 33 12 18 1001.7 - 0.0
15/03:00pm 5.2 -1.3 -2.8 56 3.1 SSE 22 39 12 21 1001.8 - 0.0
15/02:30pm 5.6 -1.7 -3.2 53 3.3 SE 26 33 14 18 1002.0 - 0.0
15/02:00pm 5.3 -1.9 -2.3 58 2.9 SE 26 35 14 19 1002.5 - 0.0
15/01:30pm 5.5 -2.6 -2.9 54 3.2 SE 30 35 16 19 1002.6 - 0.0
15/01:00pm 5.4 -2.6 -2.6 56 3.1 SE 30 37 16 20 1002.6 - 0.0
15/12:30pm 5.3 -4.1 -2.8 56 3.1 ESE 37 43 20 23 1003.1 - 0.0
15/12:00pm 5.4 -3.3 -3.2 54 3.3 SE 33 41 18 22 1003.7 - 0.0
15/11:30am 4.9 -4.6 -3.4 55 3.1 SE 37 44 20 24 1004.3 - 0.0
15/11:00am 4.8 -4.0 -3.9 53 3.2 ESE 33 43 18 23 1005.0 - 0.0
15/10:30am 4.7 -4.1 -3.9 53 3.2 SE 33 46 18 25 1005.3 - 0.0
15/10:00am 4.2 -3.6 -4.0 55 3.0 SE 28 35 15 19 1005.1 - 0.0
15/09:30am 3.2 -5.4 -4.2 58 2.7 SE 32 37 17 20 1005.2 - 0.0
15/09:00am 2.7 -5.6 -4.7 58 2.6 SE 30 39 16 21 1005.1 - 0.0
15/08:30am 2.5 -3.7 -5.1 57 2.8 SSE 19 24 10 13 1005.1 - 0.0
15/08:00am 2.0 -3.9 -5.3 58 2.6 SSE 17 24 9 13 1005.1 - 0.0
15/07:30am 1.1 -4.8 -5.9 59 2.4 SE 17 20 9 11 1005.3 - 0.0
15/07:00am 0.8 -4.8 -6.2 59 2.4 ESE 15 22 8 12 1005.3 - 0.0
15/06:30am 0.7 -5.8 -6.0 61 2.3 SE 20 24 11 13 1005.3 - 0.0
15/06:00am 0.6 -4.6 -6.4 59 2.3 ESE 13 22 7 12 1005.3 - 0.0
15/05:30am 0.9 -5.4 -6.1 59 2.4 ESE 19 24 10 13 1005.3 - 0.0
15/05:00am 1.1 -6.6 -6.3 58 2.5 SE 26 33 14 18 1004.9 - 0.0
15/04:30am 1.2 -6.1 -6.2 58 2.5 SSE 24 32 13 17 1005.4 - 0.0
15/04:00am 1.4 -4.9 -6.3 56 2.7 SE 19 22 10 12 1005.5 - 0.0
15/03:30am 1.6 -4.0 -6.0 57 2.7 ESE 15 19 8 10 1005.9 - 0.0
15/03:00am 1.7 -4.6 -5.9 57 2.7 ESE 19 24 10 13 1005.9 - 0.0
15/02:30am 0.6 -4.0 -4.2 70 1.7 NNE 11 17 6 9 1006.3 - 0.0
15/02:00am 1.2 -2.8 -5.5 61 2.3 E 7 15 4 8 1006.6 - 0.0
15/01:30am 1.3 -3.8 -5.5 60 2.4 SSE 13 19 7 10 1006.8 - 0.0
15/01:00am 0.9 -2.9 -5.2 64 2.1 SSE 6 9 3 5 1006.8 - 0.0
15/12:30am 1.2 -2.5 -4.7 65 2.1 SSE 6 13 3 7 1007.0 - 0.0
15/12:00am 1.8 -2.5 -4.6 62 2.3 E 9 15 5 8 1007.4 - 0.0
 
Date/Time
EST
Temp
°C
App
Temp
°C
Dew
Point
°C
Rel
Hum
%
Delta-T
°C
Wind Press
QNH
hPa
Press
MSL
hPa
Rain since
9am
mm
Dir  Spd
km/h
Gust
km/h
Spd
kts
Gust
kts
14/11:30pm 2.2 -3.2 -4.5 61 2.5 E 15 24 8 13 1007.7 - 0.0
14/11:00pm 2.3 -2.3 -3.7 64 2.2 E 11 17 6 9 1008.2 - 0.0
14/10:30pm 2.3 -3.0 -3.4 66 2.1 E 15 20 8 11 1008.2 - 0.0
14/10:00pm 2.1 -2.1 -3.6 66 2.1 E 9 13 5 7 1008.4 - 0.0
14/09:30pm 2.0 -1.7 -3.2 68 1.9 ENE 7 15 4 8 1008.6 - 0.0
14/09:00pm 1.6 -2.0 -2.1 76 1.4 NNE 7 9 4 5 1008.8 - 0.0
14/08:30pm 2.9 -0.1 -2.2 69 1.9 E 4 7 2 4 1008.8 - 0.0
14/08:00pm 3.2 -0.3 -2.8 65 2.2 E 6 9 3 5 1008.9 - 0.0
14/07:30pm 2.7 -0.5 -3.5 63 2.3 E 4 7 2 4 1009.0 - 0.0
14/07:00pm 2.8 0.4 -3.3 64 2.2 CALM 0 4 0 2 1009.0 - 0.0
14/06:30pm 2.4 -0.8 -3.4 65 2.1 WSW 4 7 2 4 1008.8 - 0.0
14/06:00pm 3.3 -2.4 -3.5 61 2.5 ESE 17 26 9 14 1008.5 - 0.0
14/05:30pm 2.5 -1.9 -2.8 68 2.0 ESE 11 19 6 10 1008.2 - 0.0
14/05:00pm 3.5 -1.8 -3.5 60 2.6 E 15 19 8 10 1008.4 - 0.0
14/04:30pm 4.6 -0.3 -3.7 55 3.1 ESE 13 19 7 10 1008.3 - 0.0
14/04:00pm 5.2 1.0 -4.0 51 3.4 E 9 13 5 7 1008.4 - 0.0
14/03:30pm 5.4 0.8 -4.3 49 3.6 E 11 19 6 10 1008.4 - 0.0
14/03:00pm 6.3 0.2 -3.8 48 3.8 ESE 19 24 10 13 1008.4 - 0.0
14/02:30pm 7.3 1.0 -4.4 43 4.4 ESE 20 28 11 15 1008.3 - 0.0
14/02:00pm 7.3 1.6 -4.0 44 4.3 E 17 20 9 11 1008.1 - 0.0
14/01:30pm 7.3 1.5 -4.3 43 4.4 E 17 24 9 13 1008.2 - 0.0
14/01:00pm 7.6 1.8 -4.6 41 4.6 E 17 26 9 14 1008.6 - 0.0
14/12:30pm 7.4 2.1 -3.7 45 4.2 E 15 17 8 9 1008.7 - 0.0
14/12:00pm 7.3 2.1 -3.1 47 4.0 ESE 15 20 8 11 1009.4 - 0.0
14/11:30am 7.0 0.9 -3.8 46 4.1 ESE 19 24 10 13 1009.8 - 0.0
14/11:00am 6.7 1.0 -3.5 48 3.9 SE 17 20 9 11 1010.4 - 0.0
14/10:30am 6.4 0.8 -3.1 50 3.6 ESE 17 24 9 13 1010.7 - 0.0
14/10:00am 6.3 1.9 -2.5 53 3.4 E 11 15 6 8 1010.8 - 0.0
14/09:30am 5.4 0.4 -1.3 62 2.7 NE 15 19 8 10 1010.7 - 0.0
14/09:00am 5.0 2.0 -1.5 63 2.6 N 4 6 2 3 1010.9 - 0.0
14/08:30am 3.7 1.2 -0.9 72 1.8 W 2 4 1 2 1011.0 - 0.0
14/08:00am 2.6 -0.4 -2.2 70 1.8 NW 4 6 2 3 1011.1 - 0.0
14/07:30am 1.2 -1.5 -2.6 76 1.5 NW 2 4 1 2 1011.1 - 0.0
14/07:00am 1.1 -1.6 -2.1 79 1.2 NNW 2 4 1 2 1011.1 - 0.0
14/06:30am 1.1 -1.9 -2.2 79 1.3 WSW 4 4 2 2 1010.9 - 0.0
14/06:00am 0.8 -1.9 -2.1 81 1.1 WSW 2 4 1 2 1011.0 - 0.0
14/05:30am 0.9 -2.5 -2.3 79 1.2 WNW 6 11 3 6 1010.8 - 0.0
14/05:00am 1.5 -2.9 -2.1 77 1.3 N 11 13 6 7 1010.6 - 0.0
14/04:30am 1.4 -3.0 -2.2 77 1.3 N 11 13 6 7 1010.6 - 0.0
14/04:00am 2.0 -1.6 -1.9 75 1.5 N 7 9 4 5 1010.8 - 0.0
14/03:30am 2.1 -1.5 -2.0 74 1.5 N 7 11 4 6 1010.9 - 0.0
14/03:00am 1.8 -0.9 -2.2 75 1.5 WNW 2 7 1 4 1011.1 - 0.0
14/02:30am 2.4 -0.2 -1.8 74 1.6 N 2 6 1 3 1011.1 - 0.0
14/02:00am 2.1 -0.5 -1.9 75 1.5 NNW 2 7 1 4 1011.1 - 0.0
14/01:30am 1.8 -0.8 -1.8 77 1.4 ESE 2 4 1 2 1011.3 - 0.0
14/01:00am 1.7 -1.3 -1.6 79 1.2 NNE 4 6 2 3 1011.2 - 0.0
14/12:30am 2.2 -0.8 -1.6 76 1.4 ENE 4 7 2 4 1011.3 - 0.0
14/12:00am 2.5 -1.4 -1.6 74 1.6 N 9 9 5 5 1011.4 - 0.0
 
Date/Time
EST
Temp
°C
App
Temp
°C
Dew
Point
°C
Rel
Hum
%
Delta-T
°C
Wind Press
QNH
hPa
Press
MSL
hPa
Rain since
9am
mm
Dir  Spd
km/h
Gust
km/h
Spd
kts
Gust
kts
13/11:30pm 2.8 -0.2 -1.5 73 1.6 NNW 4 7 2 4 1011.7 - 0.0
13/11:00pm 3.1 -0.3 -1.7 71 1.8 N 6 7 3 4 1011.9 - 0.0
13/10:30pm 3.4 0.4 -1.5 70 1.9 N 4 6 2 3 1012.1 - 0.0
13/10:00pm 3.1 0.1 -1.7 71 1.8 N 4 7 2 4 1012.0 - 0.0
13/09:30pm 2.9 0.1 -0.7 77 1.4 ESE 4 7 2 4 1012.1 - 0.0
13/09:00pm 2.5 -0.7 -0.7 79 1.2 N 6 9 3 5 1012.1 - 0.0
13/08:30pm 3.2 -0.1 -0.2 78 1.4 N 7 9 4 5 1012.1 - 0.0
13/08:00pm 3.3 0.9 0.0 79 1.3 WSW 2 4 1 2 1012.3 - 0.0
13/07:30pm 3.5 0.2 -0.1 77 1.4 N 7 9 4 5 1012.2 - 0.0
13/07:00pm 4.1 0.0 -0.2 73 1.7 NNE 11 11 6 6 1012.1 - 0.0
13/06:30pm 4.9 0.1 0.0 70 2.0 N 15 17 8 9 1011.9 - 0.0
13/06:00pm 5.8 2.1 0.2 67 2.3 NE 9 9 5 5 1011.8 - 0.0
13/05:30pm 6.2 1.8 0.2 65 2.5 NNE 13 17 7 9 1011.5 - 0.0
13/05:00pm 6.7 3.1 0.3 63 2.7 ENE 9 13 5 7 1011.3 - 0.0
13/04:30pm 7.2 2.4 0.4 62 2.9 NE 15 17 8 9 1011.1 - 0.0
13/04:00pm 9.4 4.3 0.5 54 3.8 NE 17 19 9 10 1011.0 - 0.0
13/03:30pm 10.2 4.9 -0.6 47 4.6 NE 17 20 9 11 1010.9 - 0.0
13/03:00pm 9.9 4.6 -0.7 47 4.5 NE 17 19 9 10 1011.0 - 0.0
13/02:30pm 10.1 5.1 -1.1 45 4.7 NE 15 20 8 11 1011.3 - 0.0
13/02:00pm 10.2 5.9 -1.9 43 5.0 ENE 11 13 6 7 1011.4 - 0.0
13/01:30pm 10.0 6.1 -1.6 44 4.8 ENE 9 13 5 7 1011.7 - 0.0
13/01:00pm 9.5 3.6 -1.9 45 4.7 NE 19 22 10 12 1011.9 - 0.0
13/12:30pm 8.8 2.8 -1.3 49 4.2 NE 20 26 11 14 1012.3 - 0.0
13/12:00pm 8.3 2.6 -0.7 53 3.7 NE 19 22 10 12 1012.9 - 0.0
13/11:30am 7.7 1.0 -1.3 53 3.7 NNE 24 28 13 15 1013.5 - 0.0
13/11:00am 7.2 0.1 -1.6 53 3.5 NE 26 32 14 17 1013.9 - 0.0
13/10:30am 7.3 1.5 -1.3 54 3.5 ENE 19 24 10 13 1014.3 - 0.0
13/10:00am 6.8 0.8 -1.5 55 3.3 NE 20 24 11 13 1014.1 - 0.0

Latest Capital City Observations: Canberra | Sydney | Melbourne | Brisbane | Adelaide | Perth | Hobart | Darwin

Other formats

Comma delimited format used in spreadsheet applications
http://www.bom.gov.au/fwo/IDN60903/IDN60903.99765.axf

JavaScript Object Notation format (JSON) in row-major order
http://www.bom.gov.au/fwo/IDN60903/IDN60903.99765.json

Data quality

Most of these data are generated automatically and are frequently updated. Quality checks on data are not normally performed. It is possible for incorrect values to appear. Refer to information at About Latest Weather Observations and please check the disclaimer before using these data.